TimeAST,TemperatureF,Dew PointF,Humidity,Sea Level PressureIn,VisibilityMPH,Wind Direction,Wind SpeedMPH,Gust SpeedMPH,PrecipitationIn,Events,Conditions,WindDirDegrees,DateUTC
12:00 AM,77.0,71.6,83,30.01,6.2,Variable,1.2,-,N/A,,Partly Cloudy,0,2013-03-28 04:00:00
1:00 AM,77.0,71.6,83,30.01,6.2,Variable,1.2,-,N/A,,Scattered Clouds,0,2013-03-28 05:00:00
2:00 AM,76,71,82,29.98,22,,1.2,,,,Partly Cloudy,,2013-03-28 06:00:00
2:00 AM,75.2,71.6,89,29.98,6.2,Variable,1.2,-,N/A,,Scattered Clouds,0,2013-03-28 06:00:00
3:00 AM,75.2,71.6,89,29.95,6.2,East,3.5,-,N/A,,Scattered Clouds,90,2013-03-28 07:00:00
4:00 AM,77.0,71.6,83,29.95,6.2,Calm,Calm,-,N/A,,Scattered Clouds,0,2013-03-28 08:00:00
5:00 AM,76,72,84,29.98,22,,2.3,,,,Scattered Clouds,,2013-03-28 09:00:00
5:00 AM,75.2,71.6,89,29.98,6.2,Variable,2.3,-,N/A,,Partly Cloudy,0,2013-03-28 09:00:00
6:00 AM,75.2,71.6,89,29.98,6.2,Variable,1.2,-,N/A,,Partly Cloudy,0,2013-03-28 10:00:00
7:00 AM,77.0,73.4,89,29.98,6.2,Variable,2.3,-,N/A,,Partly Cloudy,0,2013-03-28 11:00:00
8:00 AM,79,73,77,30.02,22,ESE,2.3,,,,Mostly Cloudy,120,2013-03-28 12:00:00
8:00 AM,78.8,73.4,83,30.01,6.2,Variable,3.5,-,N/A,,Mostly Cloudy,0,2013-03-28 12:00:00
9:00 AM,80.6,71.6,74,30.04,6.2,Variable,3.5,-,N/A,,Mostly Cloudy,0,2013-03-28 13:00:00
10:00 AM,82.4,71.6,70,30.04,6.2,ESE,8.1,-,N/A,,Partly Cloudy,110,2013-03-28 14:00:00
11:00 AM,83,71,59,30.04,28,SSE,10.4,,,,Partly Cloudy,160,2013-03-28 15:00:00
11:00 AM,82.4,71.6,70,30.04,6.2,SE,9.2,-,N/A,,Partly Cloudy,140,2013-03-28 15:00:00
12:00 PM,82.4,71.6,70,30.01,6.2,SE,10.4,-,N/A,,Scattered Clouds,140,2013-03-28 16:00:00
1:00 PM,82.4,71.6,70,30.01,6.2,SSE,5.8,-,N/A,,Scattered Clouds,150,2013-03-28 17:00:00
2:00 PM,83,72,61,29.99,28,SSE,5.8,,,,Partly Cloudy,160,2013-03-28 18:00:00
2:00 PM,82.4,71.6,70,29.98,6.2,SSE,5.8,-,N/A,,Scattered Clouds,160,2013-03-28 18:00:00
3:00 PM,82.4,71.6,70,29.95,6.2,SE,9.2,-,N/A,,Scattered Clouds,140,2013-03-28 19:00:00
4:00 PM,82.4,71.6,70,29.95,6.2,SE,9.2,-,N/A,,Scattered Clouds,140,2013-03-28 20:00:00
5:00 PM,82,72,63,29.97,31,SE,8.1,,,,Scattered Clouds,140,2013-03-28 21:00:00
5:00 PM,82.4,71.6,70,29.95,6.2,SE,8.1,-,N/A,,Partly Cloudy,140,2013-03-28 21:00:00
6:00 PM,80.6,69.8,70,29.98,6.2,ESE,6.9,-,N/A,,Partly Cloudy,110,2013-03-28 22:00:00
7:00 PM,78.8,69.8,74,30.01,6.2,ENE,9.2,-,N/A,,Partly Cloudy,70,2013-03-28 23:00:00
8:00 PM,79,70,68,30.02,25,East,8.1,,,,Partly Cloudy,80,2013-03-29 00:00:00
8:00 PM,78.8,69.8,74,30.01,6.2,ENE,6.9,-,N/A,,Scattered Clouds,70,2013-03-29 00:00:00
9:00 PM,78.8,69.8,74,30.04,6.2,East,5.8,-,N/A,,Scattered Clouds,90,2013-03-29 01:00:00
10:00 PM,78.8,69.8,74,30.04,6.2,East,5.8,-,N/A,,Partly Cloudy,80,2013-03-29 02:00:00
11:00 PM,78,70,69,30.05,19,East,8.1,,,,Partly Cloudy,80,2013-03-29 03:00:00
11:00 PM,78.8,69.8,74,30.04,6.2,ENE,8.1,-,N/A,,Scattered Clouds,70,2013-03-29 03:00:00